sensor_id;sensor_type;location;lat;lon;timestamp;P1;durP1;ratioP1;P2;durP2;ratioP2
7383;SDS011;3733;47.994;8.820;2024-01-25T00:00:49;6.83;;;2.53;;
7383;SDS011;3733;47.994;8.820;2024-01-25T00:03:15;7.83;;;2.03;;
7383;SDS011;3733;47.994;8.820;2024-01-25T00:05:40;7.70;;;2.17;;
7383;SDS011;3733;47.994;8.820;2024-01-25T00:08:06;7.20;;;2.20;;
7383;SDS011;3733;47.994;8.820;2024-01-25T00:10:32;14.70;;;1.80;;
7383;SDS011;3733;47.994;8.820;2024-01-25T00:12:58;8.77;;;1.80;;
7383;SDS011;3733;47.994;8.820;2024-01-25T00:15:23;8.67;;;1.90;;
7383;SDS011;3733;47.994;8.820;2024-01-25T00:17:49;5.43;;;1.60;;
7383;SDS011;3733;47.994;8.820;2024-01-25T00:20:15;7.50;;;2.07;;
7383;SDS011;3733;47.994;8.820;2024-01-25T00:22:41;7.63;;;1.80;;
7383;SDS011;3733;47.994;8.820;2024-01-25T00:25:06;5.77;;;1.73;;
7383;SDS011;3733;47.994;8.820;2024-01-25T00:27:32;10.53;;;2.23;;
7383;SDS011;3733;47.994;8.820;2024-01-25T00:29:58;18.43;;;2.17;;
7383;SDS011;3733;47.994;8.820;2024-01-25T00:32:24;8.10;;;2.10;;
7383;SDS011;3733;47.994;8.820;2024-01-25T00:34:49;6.13;;;1.70;;
7383;SDS011;3733;47.994;8.820;2024-01-25T00:37:15;3.10;;;1.97;;
7383;SDS011;3733;47.994;8.820;2024-01-25T00:39:41;4.93;;;2.07;;
7383;SDS011;3733;47.994;8.820;2024-01-25T00:42:07;6.10;;;2.13;;
7383;SDS011;3733;47.994;8.820;2024-01-25T00:44:34;8.40;;;2.40;;
7383;SDS011;3733;47.994;8.820;2024-01-25T00:46:59;8.50;;;1.70;;
7383;SDS011;3733;47.994;8.820;2024-01-25T00:49:25;3.77;;;1.67;;
7383;SDS011;3733;47.994;8.820;2024-01-25T00:51:53;4.13;;;1.73;;
7383;SDS011;3733;47.994;8.820;2024-01-25T00:54:24;4.83;;;1.67;;
7383;SDS011;3733;47.994;8.820;2024-01-25T00:56:49;15.37;;;2.17;;
7383;SDS011;3733;47.994;8.820;2024-01-25T00:59:17;5.57;;;1.60;;
7383;SDS011;3733;47.994;8.820;2024-01-25T01:01:44;6.63;;;2.00;;
7383;SDS011;3733;47.994;8.820;2024-01-25T01:04:13;6.40;;;1.43;;
7383;SDS011;3733;47.994;8.820;2024-01-25T01:06:39;4.40;;;1.80;;
7383;SDS011;3733;47.994;8.820;2024-01-25T01:09:05;5.53;;;2.00;;
7383;SDS011;3733;47.994;8.820;2024-01-25T01:11:31;8.20;;;2.20;;
7383;SDS011;3733;47.994;8.820;2024-01-25T01:13:56;5.73;;;2.03;;
7383;SDS011;3733;47.994;8.820;2024-01-25T01:16:22;7.23;;;2.20;;
7383;SDS011;3733;47.994;8.820;2024-01-25T01:18:48;4.47;;;1.43;;
7383;SDS011;3733;47.994;8.820;2024-01-25T01:21:13;4.80;;;1.70;;
7383;SDS011;3733;47.994;8.820;2024-01-25T01:23:39;10.80;;;3.43;;
7383;SDS011;3733;47.994;8.820;2024-01-25T01:26:04;9.00;;;3.90;;
7383;SDS011;3733;47.994;8.820;2024-01-25T01:28:30;5.33;;;1.60;;
7383;SDS011;3733;47.994;8.820;2024-01-25T01:30:56;11.07;;;2.60;;
7383;SDS011;3733;47.994;8.820;2024-01-25T01:33:22;6.83;;;2.07;;
7383;SDS011;3733;47.994;8.820;2024-01-25T01:35:47;11.83;;;1.60;;
7383;SDS011;3733;47.994;8.820;2024-01-25T01:38:13;5.27;;;1.90;;
7383;SDS011;3733;47.994;8.820;2024-01-25T01:40:39;5.07;;;1.90;;
7383;SDS011;3733;47.994;8.820;2024-01-25T01:43:04;7.57;;;1.60;;
7383;SDS011;3733;47.994;8.820;2024-01-25T01:45:30;3.90;;;2.10;;
7383;SDS011;3733;47.994;8.820;2024-01-25T01:47:55;8.60;;;2.10;;
7383;SDS011;3733;47.994;8.820;2024-01-25T01:50:22;7.30;;;1.70;;
7383;SDS011;3733;47.994;8.820;2024-01-25T01:52:48;8.43;;;2.20;;
7383;SDS011;3733;47.994;8.820;2024-01-25T01:55:15;8.83;;;2.03;;
7383;SDS011;3733;47.994;8.820;2024-01-25T01:57:42;4.33;;;2.00;;
7383;SDS011;3733;47.994;8.820;2024-01-25T02:00:09;5.83;;;1.87;;
7383;SDS011;3733;47.994;8.820;2024-01-25T02:02:35;4.20;;;1.80;;
7383;SDS011;3733;47.994;8.820;2024-01-25T02:05:01;6.03;;;1.80;;
7383;SDS011;3733;47.994;8.820;2024-01-25T02:07:27;8.40;;;3.23;;
7383;SDS011;3733;47.994;8.820;2024-01-25T02:09:55;17.23;;;2.23;;
7383;SDS011;3733;47.994;8.820;2024-01-25T02:12:20;9.80;;;2.30;;
7383;SDS011;3733;47.994;8.820;2024-01-25T02:14:46;6.20;;;2.10;;
7383;SDS011;3733;47.994;8.820;2024-01-25T02:17:12;5.40;;;1.57;;
7383;SDS011;3733;47.994;8.820;2024-01-25T02:19:37;3.47;;;1.40;;
7383;SDS011;3733;47.994;8.820;2024-01-25T02:22:04;7.03;;;2.00;;
7383;SDS011;3733;47.994;8.820;2024-01-25T02:24:30;7.60;;;2.73;;
7383;SDS011;3733;47.994;8.820;2024-01-25T02:26:56;2.97;;;1.80;;
7383;SDS011;3733;47.994;8.820;2024-01-25T02:29:22;8.83;;;1.97;;
7383;SDS011;3733;47.994;8.820;2024-01-25T02:31:47;4.93;;;1.73;;
7383;SDS011;3733;47.994;8.820;2024-01-25T02:34:13;2.20;;;1.50;;
7383;SDS011;3733;47.994;8.820;2024-01-25T02:36:39;2.90;;;1.50;;
7383;SDS011;3733;47.994;8.820;2024-01-25T02:39:04;7.63;;;2.00;;
7383;SDS011;3733;47.994;8.820;2024-01-25T02:41:33;5.60;;;1.60;;
7383;SDS011;3733;47.994;8.820;2024-01-25T02:43:59;6.23;;;1.97;;
7383;SDS011;3733;47.994;8.820;2024-01-25T02:46:26;6.43;;;1.90;;
7383;SDS011;3733;47.994;8.820;2024-01-25T02:48:51;5.13;;;1.60;;
7383;SDS011;3733;47.994;8.820;2024-01-25T02:51:17;2.50;;;2.13;;
7383;SDS011;3733;47.994;8.820;2024-01-25T02:53:42;6.87;;;1.80;;
7383;SDS011;3733;47.994;8.820;2024-01-25T02:56:08;12.50;;;2.37;;
7383;SDS011;3733;47.994;8.820;2024-01-25T02:58:34;6.83;;;1.97;;
7383;SDS011;3733;47.994;8.820;2024-01-25T03:00:59;5.63;;;1.90;;
7383;SDS011;3733;47.994;8.820;2024-01-25T03:03:25;3.43;;;1.70;;
7383;SDS011;3733;47.994;8.820;2024-01-25T03:05:53;4.60;;;1.93;;
7383;SDS011;3733;47.994;8.820;2024-01-25T03:08:19;2.77;;;1.80;;
7383;SDS011;3733;47.994;8.820;2024-01-25T03:10:45;3.80;;;1.80;;
7383;SDS011;3733;47.994;8.820;2024-01-25T03:13:14;2.30;;;1.40;;
7383;SDS011;3733;47.994;8.820;2024-01-25T03:15:41;7.77;;;2.00;;
7383;SDS011;3733;47.994;8.820;2024-01-25T03:18:07;6.40;;;2.30;;
7383;SDS011;3733;47.994;8.820;2024-01-25T03:20:32;4.43;;;1.80;;
7383;SDS011;3733;47.994;8.820;2024-01-25T03:22:58;6.53;;;2.07;;
7383;SDS011;3733;47.994;8.820;2024-01-25T03:25:24;4.60;;;1.67;;
7383;SDS011;3733;47.994;8.820;2024-01-25T03:27:49;3.93;;;1.53;;
7383;SDS011;3733;47.994;8.820;2024-01-25T03:30:15;2.23;;;1.33;;
7383;SDS011;3733;47.994;8.820;2024-01-25T03:32:40;2.30;;;1.60;;
7383;SDS011;3733;47.994;8.820;2024-01-25T03:35:06;7.93;;;1.80;;
7383;SDS011;3733;47.994;8.820;2024-01-25T03:37:32;3.80;;;1.60;;
7383;SDS011;3733;47.994;8.820;2024-01-25T03:39:58;4.20;;;1.73;;
7383;SDS011;3733;47.994;8.820;2024-01-25T03:42:23;4.37;;;1.90;;
7383;SDS011;3733;47.994;8.820;2024-01-25T03:44:49;6.10;;;1.53;;
7383;SDS011;3733;47.994;8.820;2024-01-25T03:47:14;2.33;;;1.60;;
7383;SDS011;3733;47.994;8.820;2024-01-25T03:49:40;3.63;;;1.50;;
7383;SDS011;3733;47.994;8.820;2024-01-25T03:52:06;3.90;;;1.50;;
7383;SDS011;3733;47.994;8.820;2024-01-25T03:54:32;5.73;;;1.50;;
7383;SDS011;3733;47.994;8.820;2024-01-25T03:56:57;5.30;;;1.80;;
7383;SDS011;3733;47.994;8.820;2024-01-25T03:59:23;4.30;;;1.70;;
7383;SDS011;3733;47.994;8.820;2024-01-25T04:01:48;1.70;;;1.10;;
7383;SDS011;3733;47.994;8.820;2024-01-25T04:04:14;3.13;;;1.53;;
7383;SDS011;3733;47.994;8.820;2024-01-25T04:06:41;5.27;;;1.60;;
7383;SDS011;3733;47.994;8.820;2024-01-25T04:09:10;2.57;;;1.80;;
7383;SDS011;3733;47.994;8.820;2024-01-25T04:11:36;5.80;;;1.67;;
7383;SDS011;3733;47.994;8.820;2024-01-25T04:14:02;6.17;;;2.33;;
7383;SDS011;3733;47.994;8.820;2024-01-25T04:16:28;3.87;;;2.00;;
7383;SDS011;3733;47.994;8.820;2024-01-25T04:18:54;2.37;;;1.30;;
7383;SDS011;3733;47.994;8.820;2024-01-25T04:21:19;4.80;;;1.60;;
7383;SDS011;3733;47.994;8.820;2024-01-25T04:23:45;2.60;;;1.20;;
7383;SDS011;3733;47.994;8.820;2024-01-25T04:26:11;1.00;;;0.90;;
7383;SDS011;3733;47.994;8.820;2024-01-25T04:28:36;3.83;;;1.20;;
7383;SDS011;3733;47.994;8.820;2024-01-25T04:31:02;4.07;;;1.27;;
7383;SDS011;3733;47.994;8.820;2024-01-25T04:33:30;5.03;;;1.20;;
7383;SDS011;3733;47.994;8.820;2024-01-25T04:35:56;2.13;;;1.10;;
7383;SDS011;3733;47.994;8.820;2024-01-25T04:38:21;4.37;;;0.97;;
7383;SDS011;3733;47.994;8.820;2024-01-25T04:40:47;2.30;;;1.30;;
7383;SDS011;3733;47.994;8.820;2024-01-25T04:43:13;1.27;;;0.90;;
7383;SDS011;3733;47.994;8.820;2024-01-25T04:45:38;3.70;;;1.20;;
7383;SDS011;3733;47.994;8.820;2024-01-25T04:48:05;1.70;;;1.07;;
7383;SDS011;3733;47.994;8.820;2024-01-25T04:50:31;1.53;;;1.00;;
7383;SDS011;3733;47.994;8.820;2024-01-25T04:52:57;1.40;;;1.00;;
7383;SDS011;3733;47.994;8.820;2024-01-25T04:55:22;2.10;;;1.00;;
7383;SDS011;3733;47.994;8.820;2024-01-25T04:57:48;1.40;;;1.13;;
7383;SDS011;3733;47.994;8.820;2024-01-25T05:00:18;5.60;;;1.43;;
7383;SDS011;3733;47.994;8.820;2024-01-25T05:02:44;2.87;;;1.67;;
7383;SDS011;3733;47.994;8.820;2024-01-25T05:05:09;3.63;;;1.10;;
7383;SDS011;3733;47.994;8.820;2024-01-25T05:07:35;3.43;;;1.30;;
7383;SDS011;3733;47.994;8.820;2024-01-25T05:10:01;2.97;;;1.27;;
7383;SDS011;3733;47.994;8.820;2024-01-25T05:12:27;1.77;;;1.23;;
7383;SDS011;3733;47.994;8.820;2024-01-25T05:14:52;3.80;;;1.57;;
7383;SDS011;3733;47.994;8.820;2024-01-25T05:17:18;2.50;;;1.03;;
7383;SDS011;3733;47.994;8.820;2024-01-25T05:19:44;1.80;;;0.90;;
7383;SDS011;3733;47.994;8.820;2024-01-25T05:22:10;1.20;;;1.10;;
7383;SDS011;3733;47.994;8.820;2024-01-25T05:24:35;1.47;;;1.10;;
7383;SDS011;3733;47.994;8.820;2024-01-25T05:27:01;1.83;;;1.57;;
7383;SDS011;3733;47.994;8.820;2024-01-25T05:29:27;4.67;;;1.20;;
7383;SDS011;3733;47.994;8.820;2024-01-25T05:31:52;1.57;;;1.43;;
7383;SDS011;3733;47.994;8.820;2024-01-25T05:34:18;3.00;;;1.33;;
7383;SDS011;3733;47.994;8.820;2024-01-25T05:36:43;2.30;;;1.27;;
7383;SDS011;3733;47.994;8.820;2024-01-25T05:39:09;1.93;;;1.70;;
7383;SDS011;3733;47.994;8.820;2024-01-25T05:41:35;2.30;;;2.10;;
7383;SDS011;3733;47.994;8.820;2024-01-25T05:44:00;1.77;;;1.40;;
7383;SDS011;3733;47.994;8.820;2024-01-25T05:46:26;1.33;;;1.23;;
7383;SDS011;3733;47.994;8.820;2024-01-25T05:48:52;2.30;;;1.13;;
7383;SDS011;3733;47.994;8.820;2024-01-25T05:51:17;3.37;;;1.50;;
7383;SDS011;3733;47.994;8.820;2024-01-25T05:53:43;1.60;;;1.30;;
7383;SDS011;3733;47.994;8.820;2024-01-25T05:56:09;3.60;;;1.33;;
7383;SDS011;3733;47.994;8.820;2024-01-25T05:58:34;2.70;;;1.30;;
7383;SDS011;3733;47.994;8.820;2024-01-25T06:01:00;1.37;;;1.17;;
7383;SDS011;3733;47.994;8.820;2024-01-25T06:03:26;3.13;;;1.33;;
7383;SDS011;3733;47.994;8.820;2024-01-25T06:05:51;2.30;;;1.27;;
7383;SDS011;3733;47.994;8.820;2024-01-25T06:08:17;2.10;;;1.20;;
7383;SDS011;3733;47.994;8.820;2024-01-25T06:10:43;1.80;;;1.13;;
7383;SDS011;3733;47.994;8.820;2024-01-25T06:13:08;1.70;;;1.60;;
7383;SDS011;3733;47.994;8.820;2024-01-25T06:15:34;5.20;;;2.60;;
7383;SDS011;3733;47.994;8.820;2024-01-25T06:18:00;2.60;;;1.40;;
7383;SDS011;3733;47.994;8.820;2024-01-25T06:20:26;1.47;;;1.17;;
7383;SDS011;3733;47.994;8.820;2024-01-25T06:22:51;2.83;;;1.10;;
7383;SDS011;3733;47.994;8.820;2024-01-25T06:25:17;1.20;;;1.17;;
7383;SDS011;3733;47.994;8.820;2024-01-25T06:27:42;3.50;;;1.00;;
7383;SDS011;3733;47.994;8.820;2024-01-25T06:30:08;3.40;;;1.20;;
7383;SDS011;3733;47.994;8.820;2024-01-25T06:32:34;3.53;;;1.47;;
7383;SDS011;3733;47.994;8.820;2024-01-25T06:35:00;2.40;;;1.33;;
7383;SDS011;3733;47.994;8.820;2024-01-25T06:37:26;2.93;;;1.10;;
7383;SDS011;3733;47.994;8.820;2024-01-25T06:39:51;2.43;;;1.30;;
7383;SDS011;3733;47.994;8.820;2024-01-25T06:42:17;4.40;;;1.50;;
7383;SDS011;3733;47.994;8.820;2024-01-25T06:44:48;1.70;;;1.30;;
7383;SDS011;3733;47.994;8.820;2024-01-25T06:47:13;1.20;;;1.10;;
7383;SDS011;3733;47.994;8.820;2024-01-25T06:49:39;1.50;;;1.30;;
7383;SDS011;3733;47.994;8.820;2024-01-25T06:52:05;1.33;;;1.20;;
7383;SDS011;3733;47.994;8.820;2024-01-25T06:54:30;3.73;;;1.50;;
7383;SDS011;3733;47.994;8.820;2024-01-25T06:56:56;6.53;;;1.53;;
7383;SDS011;3733;47.994;8.820;2024-01-25T06:59:22;2.40;;;1.60;;
7383;SDS011;3733;47.994;8.820;2024-01-25T07:01:48;2.37;;;1.80;;
7383;SDS011;3733;47.994;8.820;2024-01-25T07:04:14;3.37;;;1.80;;
7383;SDS011;3733;47.994;8.820;2024-01-25T07:06:40;5.00;;;1.97;;
7383;SDS011;3733;47.994;8.820;2024-01-25T07:09:06;2.13;;;1.50;;
7383;SDS011;3733;47.994;8.820;2024-01-25T07:11:32;3.23;;;1.77;;
7383;SDS011;3733;47.994;8.820;2024-01-25T07:13:57;1.90;;;1.40;;
7383;SDS011;3733;47.994;8.820;2024-01-25T07:16:23;2.30;;;1.70;;
7383;SDS011;3733;47.994;8.820;2024-01-25T07:18:49;3.53;;;2.30;;
7383;SDS011;3733;47.994;8.820;2024-01-25T07:21:14;3.20;;;1.60;;
7383;SDS011;3733;47.994;8.820;2024-01-25T07:23:40;7.10;;;2.10;;
7383;SDS011;3733;47.994;8.820;2024-01-25T07:26:06;2.20;;;1.67;;
7383;SDS011;3733;47.994;8.820;2024-01-25T07:28:31;2.50;;;1.90;;
7383;SDS011;3733;47.994;8.820;2024-01-25T07:30:57;3.07;;;1.70;;
7383;SDS011;3733;47.994;8.820;2024-01-25T07:33:23;2.70;;;1.53;;
7383;SDS011;3733;47.994;8.820;2024-01-25T07:35:48;3.17;;;1.90;;
7383;SDS011;3733;47.994;8.820;2024-01-25T07:38:14;2.80;;;1.80;;
7383;SDS011;3733;47.994;8.820;2024-01-25T07:40:40;3.50;;;2.00;;
7383;SDS011;3733;47.994;8.820;2024-01-25T07:43:06;2.47;;;1.70;;
7383;SDS011;3733;47.994;8.820;2024-01-25T07:45:32;2.10;;;1.73;;
7383;SDS011;3733;47.994;8.820;2024-01-25T07:47:58;2.50;;;1.73;;
7383;SDS011;3733;47.994;8.820;2024-01-25T07:50:23;1.70;;;1.60;;
7383;SDS011;3733;47.994;8.820;2024-01-25T07:52:49;2.07;;;1.80;;
7383;SDS011;3733;47.994;8.820;2024-01-25T07:55:15;2.50;;;1.70;;
7383;SDS011;3733;47.994;8.820;2024-01-25T07:57:41;2.03;;;1.60;;
7383;SDS011;3733;47.994;8.820;2024-01-25T08:00:07;3.90;;;1.93;;
7383;SDS011;3733;47.994;8.820;2024-01-25T08:02:34;2.67;;;1.93;;
7383;SDS011;3733;47.994;8.820;2024-01-25T08:05:00;4.00;;;2.17;;
7383;SDS011;3733;47.994;8.820;2024-01-25T08:07:26;2.13;;;1.50;;
7383;SDS011;3733;47.994;8.820;2024-01-25T08:09:51;1.50;;;1.40;;
7383;SDS011;3733;47.994;8.820;2024-01-25T08:12:18;4.40;;;1.20;;
7383;SDS011;3733;47.994;8.820;2024-01-25T08:14:43;2.87;;;1.30;;
7383;SDS011;3733;47.994;8.820;2024-01-25T08:17:09;3.13;;;1.43;;
7383;SDS011;3733;47.994;8.820;2024-01-25T08:19:35;3.97;;;2.00;;
7383;SDS011;3733;47.994;8.820;2024-01-25T08:22:01;1.67;;;1.50;;
7383;SDS011;3733;47.994;8.820;2024-01-25T08:24:27;1.53;;;1.30;;
7383;SDS011;3733;47.994;8.820;2024-01-25T08:26:52;3.47;;;1.40;;
7383;SDS011;3733;47.994;8.820;2024-01-25T08:29:18;2.47;;;1.37;;
7383;SDS011;3733;47.994;8.820;2024-01-25T08:31:44;3.90;;;1.63;;
7383;SDS011;3733;47.994;8.820;2024-01-25T08:34:11;6.83;;;1.80;;
7383;SDS011;3733;47.994;8.820;2024-01-25T08:36:36;3.53;;;1.33;;
7383;SDS011;3733;47.994;8.820;2024-01-25T08:39:02;1.80;;;1.50;;
7383;SDS011;3733;47.994;8.820;2024-01-25T08:41:29;3.97;;;1.50;;
7383;SDS011;3733;47.994;8.820;2024-01-25T08:43:54;2.40;;;1.93;;
7383;SDS011;3733;47.994;8.820;2024-01-25T08:46:20;2.33;;;1.80;;
7383;SDS011;3733;47.994;8.820;2024-01-25T08:48:45;2.47;;;1.80;;
7383;SDS011;3733;47.994;8.820;2024-01-25T08:51:11;2.27;;;1.90;;
7383;SDS011;3733;47.994;8.820;2024-01-25T08:53:37;3.70;;;2.07;;
7383;SDS011;3733;47.994;8.820;2024-01-25T08:56:02;5.00;;;2.50;;
7383;SDS011;3733;47.994;8.820;2024-01-25T08:58:29;2.23;;;1.63;;
7383;SDS011;3733;47.994;8.820;2024-01-25T09:00:55;2.97;;;1.90;;
7383;SDS011;3733;47.994;8.820;2024-01-25T09:03:21;3.90;;;2.00;;
7383;SDS011;3733;47.994;8.820;2024-01-25T09:05:47;2.47;;;1.80;;
7383;SDS011;3733;47.994;8.820;2024-01-25T09:08:13;5.40;;;1.90;;
7383;SDS011;3733;47.994;8.820;2024-01-25T09:10:55;2.17;;;1.40;;
7383;SDS011;3733;47.994;8.820;2024-01-25T09:13:20;2.57;;;1.40;;
7383;SDS011;3733;47.994;8.820;2024-01-25T09:15:46;6.67;;;2.20;;
7383;SDS011;3733;47.994;8.820;2024-01-25T09:18:12;4.70;;;1.53;;
7383;SDS011;3733;47.994;8.820;2024-01-25T09:20:37;1.47;;;1.37;;
7383;SDS011;3733;47.994;8.820;2024-01-25T09:23:03;4.83;;;1.50;;
7383;SDS011;3733;47.994;8.820;2024-01-25T09:25:29;12.20;;;6.63;;
7383;SDS011;3733;47.994;8.820;2024-01-25T09:27:54;7.00;;;4.50;;
7383;SDS011;3733;47.994;8.820;2024-01-25T09:30:22;5.10;;;3.00;;
7383;SDS011;3733;47.994;8.820;2024-01-25T09:32:47;5.80;;;4.60;;
7383;SDS011;3733;47.994;8.820;2024-01-25T09:35:13;5.43;;;3.20;;
7383;SDS011;3733;47.994;8.820;2024-01-25T09:37:39;5.63;;;1.70;;
7383;SDS011;3733;47.994;8.820;2024-01-25T09:40:05;4.00;;;1.40;;
7383;SDS011;3733;47.994;8.820;2024-01-25T09:42:31;2.30;;;1.60;;
7383;SDS011;3733;47.994;8.820;2024-01-25T09:44:57;1.37;;;1.17;;
7383;SDS011;3733;47.994;8.820;2024-01-25T09:47:23;2.20;;;1.73;;
7383;SDS011;3733;47.994;8.820;2024-01-25T09:49:48;3.10;;;1.40;;
7383;SDS011;3733;47.994;8.820;2024-01-25T09:52:14;4.90;;;2.30;;
7383;SDS011;3733;47.994;8.820;2024-01-25T09:54:44;2.93;;;2.27;;
7383;SDS011;3733;47.994;8.820;2024-01-25T09:57:13;4.73;;;1.70;;
7383;SDS011;3733;47.994;8.820;2024-01-25T09:59:43;6.70;;;3.50;;
7383;SDS011;3733;47.994;8.820;2024-01-25T10:02:10;5.17;;;1.60;;
7383;SDS011;3733;47.994;8.820;2024-01-25T10:04:36;2.50;;;1.53;;
7383;SDS011;3733;47.994;8.820;2024-01-25T10:07:02;2.50;;;1.70;;
7383;SDS011;3733;47.994;8.820;2024-01-25T10:09:28;3.73;;;1.80;;
7383;SDS011;3733;47.994;8.820;2024-01-25T10:12:02;3.23;;;2.13;;
7383;SDS011;3733;47.994;8.820;2024-01-25T10:14:28;7.23;;;2.03;;
7383;SDS011;3733;47.994;8.820;2024-01-25T10:16:54;3.67;;;2.17;;
7383;SDS011;3733;47.994;8.820;2024-01-25T10:19:20;1.87;;;1.77;;
7383;SDS011;3733;47.994;8.820;2024-01-25T10:21:45;2.27;;;1.70;;
7383;SDS011;3733;47.994;8.820;2024-01-25T10:24:11;3.03;;;1.83;;
7383;SDS011;3733;47.994;8.820;2024-01-25T10:26:38;2.00;;;1.80;;
7383;SDS011;3733;47.994;8.820;2024-01-25T10:29:05;3.77;;;2.13;;
7383;SDS011;3733;47.994;8.820;2024-01-25T10:31:32;6.27;;;2.20;;
7383;SDS011;3733;47.994;8.820;2024-01-25T10:34:03;3.13;;;1.90;;
7383;SDS011;3733;47.994;8.820;2024-01-25T10:36:30;4.90;;;2.40;;
7383;SDS011;3733;47.994;8.820;2024-01-25T10:38:56;2.43;;;1.70;;
7383;SDS011;3733;47.994;8.820;2024-01-25T10:41:24;4.30;;;2.40;;
7383;SDS011;3733;47.994;8.820;2024-01-25T10:43:52;7.10;;;3.70;;
7383;SDS011;3733;47.994;8.820;2024-01-25T10:46:18;3.93;;;2.70;;
7383;SDS011;3733;47.994;8.820;2024-01-25T10:48:44;6.27;;;2.90;;
7383;SDS011;3733;47.994;8.820;2024-01-25T10:51:10;5.23;;;2.70;;
7383;SDS011;3733;47.994;8.820;2024-01-25T10:53:36;6.47;;;2.80;;
7383;SDS011;3733;47.994;8.820;2024-01-25T10:56:02;2.30;;;2.10;;
7383;SDS011;3733;47.994;8.820;2024-01-25T10:58:32;3.63;;;2.17;;
7383;SDS011;3733;47.994;8.820;2024-01-25T11:01:00;2.47;;;2.20;;
7383;SDS011;3733;47.994;8.820;2024-01-25T11:03:28;2.30;;;2.07;;
7383;SDS011;3733;47.994;8.820;2024-01-25T11:06:05;2.93;;;2.50;;
7383;SDS011;3733;47.994;8.820;2024-01-25T11:08:40;3.37;;;1.80;;
7383;SDS011;3733;47.994;8.820;2024-01-25T11:11:06;2.33;;;1.83;;
7383;SDS011;3733;47.994;8.820;2024-01-25T11:13:38;3.07;;;2.00;;
7383;SDS011;3733;47.994;8.820;2024-01-25T11:24:14;2.57;;;1.90;;
7383;SDS011;3733;47.994;8.820;2024-01-25T11:26:47;4.83;;;2.50;;
7383;SDS011;3733;47.994;8.820;2024-01-25T11:29:14;2.30;;;1.60;;
7383;SDS011;3733;47.994;8.820;2024-01-25T11:31:45;2.60;;;1.80;;
7383;SDS011;3733;47.994;8.820;2024-01-25T11:34:12;2.73;;;1.90;;
7383;SDS011;3733;47.994;8.820;2024-01-25T11:36:40;5.30;;;2.73;;
7383;SDS011;3733;47.994;8.820;2024-01-25T11:39:06;1.43;;;1.33;;
7383;SDS011;3733;47.994;8.820;2024-01-25T11:41:34;1.47;;;1.37;;
7383;SDS011;3733;47.994;8.820;2024-01-25T11:44:01;2.93;;;1.30;;
7383;SDS011;3733;47.994;8.820;2024-01-25T11:46:28;4.40;;;2.40;;
7383;SDS011;3733;47.994;8.820;2024-01-25T11:48:55;1.60;;;1.50;;
7383;SDS011;3733;47.994;8.820;2024-01-25T11:51:20;3.67;;;1.80;;
7383;SDS011;3733;47.994;8.820;2024-01-25T11:53:46;2.20;;;1.60;;
7383;SDS011;3733;47.994;8.820;2024-01-25T11:56:16;3.80;;;1.63;;
7383;SDS011;3733;47.994;8.820;2024-01-25T11:58:45;3.10;;;1.40;;
7383;SDS011;3733;47.994;8.820;2024-01-25T12:01:12;2.30;;;1.70;;
7383;SDS011;3733;47.994;8.820;2024-01-25T12:03:38;1.50;;;1.40;;
7383;SDS011;3733;47.994;8.820;2024-01-25T12:06:05;1.70;;;1.33;;
7383;SDS011;3733;47.994;8.820;2024-01-25T12:08:33;3.20;;;1.80;;
7383;SDS011;3733;47.994;8.820;2024-01-25T12:11:03;1.53;;;1.37;;
7383;SDS011;3733;47.994;8.820;2024-01-25T12:13:33;1.37;;;1.23;;
7383;SDS011;3733;47.994;8.820;2024-01-25T12:15:59;2.63;;;1.13;;
7383;SDS011;3733;47.994;8.820;2024-01-25T12:18:26;1.47;;;1.13;;
7383;SDS011;3733;47.994;8.820;2024-01-25T12:20:52;2.13;;;1.27;;
7383;SDS011;3733;47.994;8.820;2024-01-25T12:23:17;2.00;;;1.00;;
7383;SDS011;3733;47.994;8.820;2024-01-25T12:25:43;3.67;;;1.10;;
7383;SDS011;3733;47.994;8.820;2024-01-25T12:28:10;4.50;;;1.20;;
7383;SDS011;3733;47.994;8.820;2024-01-25T12:30:35;2.20;;;1.90;;
7383;SDS011;3733;47.994;8.820;2024-01-25T12:33:01;2.63;;;2.20;;
7383;SDS011;3733;47.994;8.820;2024-01-25T12:35:27;2.83;;;2.10;;
7383;SDS011;3733;47.994;8.820;2024-01-25T12:37:53;1.80;;;1.60;;
7383;SDS011;3733;47.994;8.820;2024-01-25T12:40:18;2.27;;;1.80;;
7383;SDS011;3733;47.994;8.820;2024-01-25T12:42:44;2.50;;;1.60;;
7383;SDS011;3733;47.994;8.820;2024-01-25T12:45:10;1.70;;;1.60;;
7383;SDS011;3733;47.994;8.820;2024-01-25T12:47:35;2.10;;;1.70;;
7383;SDS011;3733;47.994;8.820;2024-01-25T12:50:01;1.83;;;1.73;;
7383;SDS011;3733;47.994;8.820;2024-01-25T12:52:26;3.00;;;1.57;;
7383;SDS011;3733;47.994;8.820;2024-01-25T12:54:52;1.67;;;1.57;;
7383;SDS011;3733;47.994;8.820;2024-01-25T12:57:18;1.87;;;1.67;;
7383;SDS011;3733;47.994;8.820;2024-01-25T12:59:43;3.00;;;2.20;;
7383;SDS011;3733;47.994;8.820;2024-01-25T13:02:10;2.47;;;2.13;;
7383;SDS011;3733;47.994;8.820;2024-01-25T13:04:37;2.10;;;1.90;;
7383;SDS011;3733;47.994;8.820;2024-01-25T13:07:03;5.90;;;3.33;;
7383;SDS011;3733;47.994;8.820;2024-01-25T13:09:28;2.80;;;2.13;;
7383;SDS011;3733;47.994;8.820;2024-01-25T13:11:58;1.60;;;1.50;;
7383;SDS011;3733;47.994;8.820;2024-01-25T13:14:24;2.80;;;1.40;;
7383;SDS011;3733;47.994;8.820;2024-01-25T13:16:50;2.23;;;1.53;;
7383;SDS011;3733;47.994;8.820;2024-01-25T13:19:15;3.37;;;1.40;;
7383;SDS011;3733;47.994;8.820;2024-01-25T13:21:41;1.50;;;1.40;;
7383;SDS011;3733;47.994;8.820;2024-01-25T13:24:07;1.50;;;1.40;;
7383;SDS011;3733;47.994;8.820;2024-01-25T13:26:33;1.67;;;1.57;;
7383;SDS011;3733;47.994;8.820;2024-01-25T13:29:00;1.60;;;1.50;;
7383;SDS011;3733;47.994;8.820;2024-01-25T13:31:26;3.20;;;1.70;;
7383;SDS011;3733;47.994;8.820;2024-01-25T13:33:52;3.60;;;1.73;;
7383;SDS011;3733;47.994;8.820;2024-01-25T13:36:17;4.97;;;1.73;;
7383;SDS011;3733;47.994;8.820;2024-01-25T13:38:43;1.83;;;1.30;;
7383;SDS011;3733;47.994;8.820;2024-01-25T13:41:08;2.03;;;1.90;;
7383;SDS011;3733;47.994;8.820;2024-01-25T13:43:34;3.20;;;1.70;;
7383;SDS011;3733;47.994;8.820;2024-01-25T13:46:00;2.07;;;1.90;;
7383;SDS011;3733;47.994;8.820;2024-01-25T13:48:25;2.93;;;1.77;;
7383;SDS011;3733;47.994;8.820;2024-01-25T13:50:51;4.60;;;2.00;;
7383;SDS011;3733;47.994;8.820;2024-01-25T13:53:17;1.97;;;1.77;;
7383;SDS011;3733;47.994;8.820;2024-01-25T13:55:42;4.43;;;2.00;;
7383;SDS011;3733;47.994;8.820;2024-01-25T13:58:08;2.23;;;1.70;;
7383;SDS011;3733;47.994;8.820;2024-01-25T14:00:34;1.80;;;1.70;;
7383;SDS011;3733;47.994;8.820;2024-01-25T14:03:00;2.63;;;2.40;;
7383;SDS011;3733;47.994;8.820;2024-01-25T14:05:25;2.47;;;2.07;;
7383;SDS011;3733;47.994;8.820;2024-01-25T14:07:51;1.80;;;1.70;;
7383;SDS011;3733;47.994;8.820;2024-01-25T14:10:17;2.43;;;2.13;;
7383;SDS011;3733;47.994;8.820;2024-01-25T14:12:43;2.10;;;1.90;;
7383;SDS011;3733;47.994;8.820;2024-01-25T14:15:09;4.00;;;2.17;;
7383;SDS011;3733;47.994;8.820;2024-01-25T14:17:35;3.53;;;2.40;;
7383;SDS011;3733;47.994;8.820;2024-01-25T14:20:02;3.30;;;2.60;;
7383;SDS011;3733;47.994;8.820;2024-01-25T14:22:29;4.20;;;2.83;;
7383;SDS011;3733;47.994;8.820;2024-01-25T14:24:55;5.67;;;3.40;;
7383;SDS011;3733;47.994;8.820;2024-01-25T14:27:20;6.13;;;3.40;;
7383;SDS011;3733;47.994;8.820;2024-01-25T14:29:46;5.00;;;3.20;;
7383;SDS011;3733;47.994;8.820;2024-01-25T14:32:12;6.87;;;3.67;;
7383;SDS011;3733;47.994;8.820;2024-01-25T14:34:37;14.93;;;6.60;;
7383;SDS011;3733;47.994;8.820;2024-01-25T14:37:05;12.13;;;5.77;;
7383;SDS011;3733;47.994;8.820;2024-01-25T14:39:30;11.50;;;5.53;;
7383;SDS011;3733;47.994;8.820;2024-01-25T14:41:56;7.17;;;3.50;;
7383;SDS011;3733;47.994;8.820;2024-01-25T14:44:21;2.30;;;2.10;;
7383;SDS011;3733;47.994;8.820;2024-01-25T14:46:47;1.90;;;1.80;;
7383;SDS011;3733;47.994;8.820;2024-01-25T14:49:13;2.43;;;2.00;;
7383;SDS011;3733;47.994;8.820;2024-01-25T14:51:38;3.23;;;1.80;;
7383;SDS011;3733;47.994;8.820;2024-01-25T14:54:04;2.80;;;1.73;;
7383;SDS011;3733;47.994;8.820;2024-01-25T14:56:29;1.73;;;1.63;;
7383;SDS011;3733;47.994;8.820;2024-01-25T14:58:55;2.27;;;1.53;;
7383;SDS011;3733;47.994;8.820;2024-01-25T15:01:21;2.90;;;1.80;;
7383;SDS011;3733;47.994;8.820;2024-01-25T15:03:52;3.53;;;2.20;;
7383;SDS011;3733;47.994;8.820;2024-01-25T15:06:18;1.80;;;1.70;;
7383;SDS011;3733;47.994;8.820;2024-01-25T15:08:44;4.00;;;2.40;;
7383;SDS011;3733;47.994;8.820;2024-01-25T15:11:09;3.00;;;2.70;;
7383;SDS011;3733;47.994;8.820;2024-01-25T15:13:35;2.70;;;2.13;;
7383;SDS011;3733;47.994;8.820;2024-01-25T15:16:01;3.10;;;2.03;;